Aviation Digital Data Service (ADDS)

Output produced by METARs form (0613 UTC 22 February 2017)
found at http://aviationweather.gov/adds/metars/
 
KDAG 220550Z AUTO 26016KT 10SM CLR 13/08 A3016 RMK AO2 SLP203 T01330083 10200 20128 58002
KDAG 220520Z 2206/2306 27014KT P6SM FEW080 BKN200 
     FM221800 26023G31KT P6SM SCT200 
     FM222200 26028G37KT P6SM FEW200 
     FM230500 25016G23KT P6SM SKC
       
KEDW 220558Z 23014KT 60SM SCT045 BKN250 11/08 A3018 RMK AO2A SLP215 T01060084 10157 20106 53001
TAF KEDW 220204Z 2202/2308 20012KT 9999 SCT040 BKN150 510009 QNH3015INS 
     BECMG 2203/2204 23009KT 9999 BKN030 BKN200 QNH3009INS 
     BECMG 2216/2217 27012G20KT 9999 SCT030 BKN250 510009 QNH3005INS 
     BECMG 2219/2220 28018G25KT 9999 FEW030 520009 QNH3004INS 
     TEMPO 2220/2304 28028G38KT 
     BECMG 2303/2304 29012G18KT 9999 FEW030 QNH3005INS TX16/2222Z TN03/2214Z
       
KVCV 220555Z AUTO 00000KT 10SM CLR 09/07 A3020 RMK AO2
KONT 220553Z 25004KT 10SM FEW070 BKN200 BKN250 14/09 A3020 RMK AO2 SLP224 T01390094 10183 20133 58001
KONT 220520Z 2206/2312 VRB04KT P6SM SCT015 BKN080 
     FM222100 24012G22KT P6SM SCT100 BKN200 
     FM230800 29007KT P6SM SCT250
       
KNID 220556Z 22017G24KT 10SM BKN250 13/06 A3013 RMK AO2 SLP201 T01330056 10167 20117 58003 $
TAF AMD KNID 2202/2223 15015KT 9999 SCT075 SCT200 BKN250 QNH3002INS WND VRB06KT AFT05 
     BECMG 2217/2219 25015G23KT 9999 FEW030 FEW250 520009 530909 QNH2990INS 
     BECMG 2221/2223 25022G30KT 9999 FEW030 530009 530909 QNH2989INS T07/2214Z T17/2222Z LAST NO AMD AFT 2205 NEXT 2215 AMD 0220
       
KSNA 220553Z 00000KT 10SM SCT065 SCT120 BKN210 16/13 A3022 RMK AO2 SLP232 T01610133 10189 20161 58001
KSNA 220520Z 2206/2306 VRB04KT P6SM SCT015 BKN050 
     FM220900 VRB03KT P6SM OVC015 
     FM222000 24010G15KT P6SM BKN100 
     FM230200 27006KT P6SM SCT250
       
KSAN 220551Z 00000KT 10SM FEW010 SCT070 SCT150 BKN250 16/12 A3023 RMK AO2 SLP236 T01560122 10194 20156 50001
KSAN 220520Z 2206/2312 36005KT P6SM SCT015 BKN070 
     FM221000 32005KT P6SM BKN015 
     FM221400 31007KT P6SM SCT015 BKN040 
     FM221900 30012G20KT P6SM OVC050 
     FM230700 29005KT P6SM BKN022
       
KNXP 220556Z 02004KT 10SM CLR 13/06 A3021 RMK AO2 SLP210 T01280056 10206 20128 58003
TAF KNXP 2203/2303 VRB05KT 9999 SCT150 BKN200 QNH3010INS 
     TEMPO 2203/2209 22008KT 
     FM221030 30008KT 9999 SCT200 QNH3003INS 
     TEMPO 2218/2300 31012G22KT AUTOMATED SENSOR METWATCH 2203 TIL 2215 T11/2214Z T18/2222Z
       
KPSP 220553Z 00000KT 10SM CLR 18/11 A3012 RMK AO2 SLP200 T01780106 10239 20172 58006
KPSP 220520Z 2206/2306 VRB06KT P6SM SCT100 BKN200 
     FM230000 32016G24KT P6SM SCT200
       
KLAX 220553Z 29008KT 10SM OVC007 14/14 A3023 RMK AO2 SLP236 T01440139 10167 20144 56002
KLAX 220535Z 2206/2312 VRB03KT P6SM BKN009 BKN080 
     FM220800 31009KT P6SM FEW010 BKN080 
     FM221300 VRB03KT 6SM BR OVC015 
     FM221900 27010KT P6SM SCT025 BKN050 
     FM222200 27012G22KT P6SM FEW025 SCT050 
     FM230100 35015KT P6SM SCT050
       
KCNO 220553Z AUTO 00000KT 9SM CLR 14/09 A3022 RMK AO2 SLP232 T01390094 10200 20133 50000
KSMO 220543Z AUTO 25004KT 10SM BKN004 14/14 A3023 RMK AO2 T01390139 $
KSMO 220535Z 2206/2306 VRB03KT P6SM SCT005 BKN080 
     FM221100 VRB03KT 6SM BR OVC015 
     FM221900 26008KT P6SM SCT025 BKN050 
     FM222200 26012KT P6SM SCT025 SCT050 
     FM230300 32008KT P6SM SCT250 AMD NOT SKED
       
KLGB 220553Z 30009KT 10SM OVC050 16/14 A3022 RMK AO2 SLP233 T01560139 10183 20156 54000
KLGB 220535Z 2206/2306 30006KT P6SM OVC060 
     FM220800 VRB03KT P6SM OVC060 
     FM221100 VRB03KT 6SM BR OVC017 
     FM221800 28010KT P6SM SCT025 BKN050 
     FM222200 29012G20KT P6SM FEW025 SCT050 
     FM230300 29012KT P6SM SCT250
       
KVNY 220551Z 00000KT 10SM CLR 12/11 A3023 RMK AO2 SLP233 60001 T01220111 10172 20122 56001
KVNY 220535Z 2206/2306 21005KT P6SM OVC050 
     FM221100 VRB03KT 3SM BR OVC012 
     FM221400 35010KT P6SM SCT250 
     FM221700 36012G18KT P6SM SCT250 
     FM230100 35022G32KT P6SM SKC
       
KBUR 220553Z 31004KT 10SM FEW048 12/11 A3022 RMK AO2 SLP227 60000 T01220111 10172 20122 56001 $
KBUR 220535Z 2206/2306 VRB03KT P6SM OVC080 
     FM221300 VRB05KT 5SM BR OVC012 
     FM221700 19006KT P6SM SCT025 BKN040 
     FM230000 31012KT P6SM BKN250 
     FM230300 34015G25KT P6SM SKC
       
KBFL 220554Z 35007KT 10SM SCT075 13/08 A3024 RMK AO2 SLP239 T01330083 10183 20133 52013 $
KBFL 220534Z 2206/2306 33009KT P6SM VCSH OVC060 
     FM221500 33009KT P6SM OVC050 
     PROB30 2215/2218 P6SM -RA OVC035 
     FM221800 31012KT P6SM OVC050
       
KPMD 220553Z AUTO 27014KT 10SM FEW034 11/08 A3022 RMK AO2 SLP224 T01110083 10144 20111 51001
KPMD 220535Z 2206/2306 27015KT P6SM BKN200 
     FM221500 28015G25KT P6SM BKN250 
     FM222000 29022G32KT P6SM BKN250 
     FM230200 28015G25KT P6SM BKN250
       
KOXR 220551Z AUTO 28006KT 4SM BR BKN003 OVC007 14/13 A3025 RMK AO2 SLP241 60000 T01440133 10161 20144 53006 $
KOXR 220535Z 2206/2306 VRB03KT 5SM BR OVC005 
     FM220800 VRB03KT 6SM BR OVC007 
     FM221000 31005KT 6SM BR OVC012 
     FM221700 28010KT P6SM SCT025 SCT050 
     FM222000 28015G25KT P6SM FEW025 SCT050 
     FM222300 28020G30KT P6SM SCT050 
     FM230300 30015KT P6SM SKC
       
KWJF 220556Z 24010KT 10SM FEW050 11/07 A3022 RMK AO2 SLP235 T01060072 10139 20106 53002
KWJF 220535Z 2206/2306 24015KT P6SM BKN200 
     FM221400 26015G25KT P6SM BKN250 
     FM221900 26022G32KT P6SM BKN250 
     FM230000 26030G40KT P6SM BKN250 
     FM230500 28022G32KT P6SM BKN250
       
KCMA 220605Z 27005KT 10SM FEW006 SCT009 BKN022 14/13 A3024 RMK AO2 T01440133
KCMA 220535Z 2206/2306 VRB03KT 1SM BR OVC002 
     FM220700 VRB03KT 2SM BR OVC004 
     FM220800 VRB03KT 3SM BR OVC006 
     FM221000 VRB03KT 6SM BR OVC007 
     FM221300 VRB03KT 6SM BR OVC012 
     FM221700 27010KT P6SM SCT012 SCT025 SCT050 
     FM222000 27012G22KT P6SM FEW025 SCT050 
     FM222300 28020G30KT P6SM SCT050 
     FM230300 30015KT P6SM SKC
       
KFAT 220553Z 34005KT 10SM BKN047 BKN090 13/07 A3024 RMK AO2 SLP240 T01280072 10183 20122 51012
KFAT 220534Z 2206/2306 34008KT P6SM BKN040 
     TEMPO 2206/2209 5SM -SHRA OVC035 
     FM220900 31008KT P6SM OVC050 
     TEMPO 2209/2212 6SM -SHRA BKN040 
     FM222100 31012KT P6SM BKN060
       
KEED 220556Z AUTO 25006KT 10SM CLR 17/12 A3011 RMK AO2 SLP180 T01670122 10222 20167 58003 $
KEED 220520Z 2206/2306 VRB05KT P6SM BKN200 
     FM222000 25012KT P6SM SCT200 
     FM222300 26015G22KT P6SM FEW200
       
KLSV 220558Z AUTO 16018G24KT 10SM CLR 17/06 A3003 RMK AO2 PK WND 13028/37 SLP159 T01670060 10202 20166 55007 $
TAF AMD KLSV 220221Z 2202/2305 14015G25KT 9999 BKN200 520009 QNH3008INS 
     TEMPO 2203/2207 17025G35KT 530009 
     BECMG 2206/2207 18012G20KT 9999 FEW100 510009 QNH2998INS 
     BECMG 2211/2212 18009KT 9999 SCT100 QNH2999INS 
     BECMG 2221/2222 22010G20KT 9999 SKC QNH2986INS TX21/2223Z TN06/2213Z
       
KLAS 220556Z 20012G25KT 10SM FEW100 BKN200 17/04 A3003 RMK AO2 SLP156 T01670039 10206 20167 58015
KLAS 220520Z 2206/2306 19013G20KT P6SM FEW100 BKN200 
     FM221000 15008KT P6SM BKN200 
     FM221600 20010KT P6SM SCT200 
     FM221900 23014G24KT P6SM FEW200 
     FM230200 34014G24KT P6SM BKN090
       
KHII 220555Z AUTO 00000KT 10SM CLR 17/09 A3011 RMK AO2
KIFP 220555Z AUTO 00000KT 10SM CLR 15/12 A3011 RMK AO2
KIFP 220520Z 2206/2306 VRB05KT P6SM BKN200 
     FM221700 19010KT P6SM BKN200 
     FM222100 22014G24KT P6SM FEW200 
     FM230500 36011G18KT P6SM FEW200